Time;durP1;ratioP1;P1;durP2;ratioP2;P2;SDS_P1;SDS_P2;PMS_P1;PMS_P2;Temp;Humidity;BMP_temperature;BMP_pressure;BME280_temperature;BME280_humidity;BME280_pressure;Samples;Min_cycle;Max_cycle;Signal;HPM_P1;HPM_P2
2023/08/18 05:38:11;;;;;;;8.60;6.03;;;;;;;22.34;100.00;100526.72;5967466;27;20300;-87
2023/08/18 05:41:14;;;;;;;7.75;6.22;;;;;;;22.33;100.00;100530.56;5366619;33;33947;-87
2023/08/18 05:44:17;;;;;;;8.63;6.20;;;;;;;22.25;100.00;100527.41;5353650;33;34281;-84
2023/08/18 05:47:20;;;;;;;7.68;5.97;;;;;;;22.35;100.00;100520.16;5360479;33;34504;-83
2023/08/18 05:50:23;;;;;;;7.65;5.47;;;;;;;22.51;100.00;100523.94;5359420;33;33621;-84
2023/08/18 05:53:26;;;;;;;8.27;5.78;;;;;;;22.78;100.00;100525.94;5351353;33;34464;-84
2023/08/18 05:56:29;;;;;;;6.53;5.10;;;;;;;22.99;100.00;100529.78;5385107;33;34328;-84
2023/08/18 05:59:32;;;;;;;7.47;5.47;;;;;;;23.17;100.00;100523.97;5364645;33;34579;-84
2023/08/18 06:02:35;;;;;;;7.72;5.78;;;;;;;23.25;100.00;100519.91;5378661;33;34050;-84
2023/08/18 06:05:38;;;;;;;6.28;5.50;;;;;;;23.41;100.00;100530.00;5365607;33;34112;-84
2023/08/18 06:08:41;;;;;;;8.73;5.90;;;;;;;23.57;100.00;100528.22;5377613;33;33842;-84
2023/08/18 06:11:44;;;;;;;8.77;5.80;;;;;;;23.62;100.00;100516.44;5365450;33;33747;-84
2023/08/18 06:14:47;;;;;;;7.55;5.50;;;;;;;23.72;100.00;100520.16;5377346;33;34488;-84
2023/08/18 06:17:50;;;;;;;8.38;6.25;;;;;;;23.60;100.00;100515.88;5364100;33;34465;-83
2023/08/18 06:20:53;;;;;;;10.40;6.07;;;;;;;23.77;100.00;100522.09;5365269;33;34675;-84
2023/08/18 06:23:56;;;;;;;7.40;5.43;;;;;;;23.76;100.00;100513.03;5365475;33;33738;-84
2023/08/18 06:26:59;;;;;;;9.68;6.03;;;;;;;23.77;100.00;100516.59;5353673;33;34772;-84
2023/08/18 06:30:03;;;;;;;9.13;6.03;;;;;;;23.79;100.00;100519.94;5366068;33;34556;-84
2023/08/18 06:33:06;;;;;;;8.15;5.90;;;;;;;23.90;100.00;100518.94;5379724;33;34682;-84
2023/08/18 06:36:09;;;;;;;6.55;5.47;;;;;;;23.90;100.00;100521.69;5354772;33;34674;-84
2023/08/18 06:39:12;;;;;;;7.07;5.07;;;;;;;24.10;100.00;100523.75;5354293;33;33911;-84
2023/08/18 06:42:15;;;;;;;6.65;5.50;;;;;;;24.24;100.00;100517.78;5366565;33;33869;-84
2023/08/18 06:45:18;;;;;;;7.55;5.43;;;;;;;24.28;100.00;100517.00;5369194;33;35787;-83
2023/08/18 06:48:21;;;;;;;6.15;4.97;;;;;;;24.27;100.00;100517.25;5375352;33;34039;-84
2023/08/18 06:51:24;;;;;;;7.40;5.25;;;;;;;24.25;100.00;100524.94;5391852;33;34350;-83
2023/08/18 06:54:27;;;;;;;8.10;5.32;;;;;;;24.46;100.00;100518.50;5347747;33;33047;-83
2023/08/18 06:57:30;;;;;;;9.43;5.50;;;;;;;24.70;100.00;100518.06;5367385;33;34133;-84
2023/08/18 07:00:33;;;;;;;6.87;5.07;;;;;;;25.11;100.00;100527.31;5353814;33;33866;-83
2023/08/18 07:03:36;;;;;;;7.32;5.60;;;;;;;25.43;100.00;100535.41;5352708;33;33504;-84
2023/08/18 07:06:44;;;;;;;6.00;5.20;;;;;;;25.45;100.00;100533.22;5360924;33;33838;-84
2023/08/18 07:09:48;;;;;;;5.95;5.10;;;;;;;25.38;100.00;100540.91;5351171;33;33866;-84
2023/08/18 07:12:51;;;;;;;7.80;5.25;;;;;;;25.12;100.00;100540.81;5362353;33;33902;-84
2023/08/18 07:15:54;;;;;;;8.38;5.30;;;;;;;25.44;100.00;100534.31;5381272;33;33423;-84
2023/08/18 07:18:57;;;;;;;7.43;5.10;;;;;;;25.53;100.00;100529.09;5371264;33;34438;-84
2023/08/18 07:22:00;;;;;;;7.22;5.28;;;;;;;25.49;100.00;100531.56;5358983;33;35244;-84
2023/08/18 07:25:04;;;;;;;6.40;5.05;;;;;;;25.39;100.00;100536.22;5370936;33;35079;-84
2023/08/18 07:28:07;;;;;;;9.02;5.35;;;;;;;25.04;100.00;100546.03;5373278;33;33789;-84
2023/08/18 07:31:10;;;;;;;9.45;5.55;;;;;;;24.81;100.00;100545.37;5361512;33;34388;-84
2023/08/18 07:34:13;;;;;;;6.05;5.45;;;;;;;24.86;100.00;100544.56;5354990;33;33832;-83
2023/08/18 07:37:16;;;;;;;7.93;5.37;;;;;;;24.95;100.00;100547.62;5366955;33;33381;-84
2023/08/18 07:40:33;;;;;;;7.53;5.57;;;;;;;24.97;100.00;100542.69;5379858;33;33692;-84
2023/08/18 07:43:36;;;;;;;8.93;5.28;;;;;;;25.31;100.00;100540.38;5354563;33;33597;-83
2023/08/18 07:46:38;;;;;;;6.25;5.20;;;;;;;25.27;100.00;100542.00;5379652;33;33880;-87
2023/08/18 07:49:41;;;;;;;6.62;4.97;;;;;;;25.61;100.00;100547.03;5379958;33;33829;-88
2023/08/18 07:52:44;;;;;;;6.65;5.22;;;;;;;25.57;100.00;100552.28;5379696;33;34531;-88
2023/08/18 07:55:47;;;;;;;6.93;5.00;;;;;;;25.63;100.00;100551.16;5366756;33;34476;-88
2023/08/18 07:58:50;;;;;;;9.20;5.45;;;;;;;25.64;100.00;100550.06;5366687;33;33856;-84
2023/08/18 08:01:53;;;;;;;6.93;4.82;;;;;;;25.62;100.00;100563.28;5379958;33;33499;-84
2023/08/18 08:04:56;;;;;;;7.68;5.57;;;;;;;25.67;100.00;100566.06;5366509;33;34657;-84
2023/08/18 08:07:59;;;;;;;6.65;5.50;;;;;;;25.59;100.00;100568.53;5366759;33;34121;-84
2023/08/18 08:11:02;;;;;;;6.18;5.30;;;;;;;25.59;100.00;100569.34;5366257;33;34543;-84
2023/08/18 08:14:04;;;;;;;8.10;5.70;;;;;;;25.84;100.00;100574.09;5354448;33;33781;-84
2023/08/18 08:17:07;;;;;;;6.40;5.37;;;;;;;26.01;100.00;100580.19;5380580;33;33800;-84
2023/08/18 08:20:15;;;;;;;9.02;6.03;;;;;;;26.16;100.00;100584.06;5393033;33;34123;-84
2023/08/18 08:23:18;;;;;;;7.57;5.75;;;;;;;26.13;100.00;100581.84;5373450;33;34322;-84
2023/08/18 08:26:21;;;;;;;8.13;5.70;;;;;;;26.63;100.00;100575.44;5354060;33;34510;-84
2023/08/18 08:29:24;;;;;;;8.20;5.68;;;;;;;26.92;100.00;100585.84;5378301;33;34024;-84
2023/08/18 08:32:27;;;;;;;6.68;5.55;;;;;;;27.09;100.00;100591.06;5378940;33;32747;-84
2023/08/18 08:35:30;;;;;;;6.15;5.53;;;;;;;27.22;100.00;100586.88;5366132;33;33906;-84
2023/08/18 08:38:33;;;;;;;7.97;5.62;;;;;;;27.06;100.00;100592.44;5366042;33;33817;-84
2023/08/18 08:41:36;;;;;;;6.97;5.35;;;;;;;27.04;100.00;100597.41;5379884;33;33394;-84
2023/08/18 08:44:39;;;;;;;7.05;5.43;;;;;;;26.82;100.00;100591.41;5368932;33;34817;-84
2023/08/18 08:47:43;;;;;;;6.62;4.90;;;;;;;26.81;100.00;100589.75;5368227;33;33904;-83
2023/08/18 08:50:54;;;;;;;6.72;4.78;;;;;;;26.91;100.00;100595.25;5367340;33;34158;-84
2023/08/18 08:54:01;;;;;;;4.95;4.40;;;;;;;27.25;98.04;100591.81;5382361;33;33596;-83
2023/08/18 08:57:08;;;;;;;;;;;;;;;27.51;95.45;100595.28;5379669;33;34394;-84
2023/08/18 09:00:14;;;;;;;5.00;4.50;;;;;;;27.22;99.95;100584.09;5379379;33;34867;-84
2023/08/18 09:03:18;;;;;;;5.62;4.72;;;;;;;27.47;95.63;100580.38;5366197;33;34718;-84
2023/08/18 09:06:22;;;;;;;6.85;5.68;;;;;;;27.31;96.32;100576.88;5379478;33;34259;-83
2023/08/18 09:09:25;;;;;;;7.87;4.80;;;;;;;26.76;100.00;100584.25;5366239;33;34447;-83
2023/08/18 09:12:28;;;;;;;6.65;4.70;;;;;;;26.66;100.00;100576.81;5379326;33;34597;-83
2023/08/18 09:15:38;;;;;;;6.50;5.10;;;;;;;26.77;100.00;100574.88;5365978;33;34445;-83
2023/08/18 09:18:41;;;;;;;5.93;5.22;;;;;;;26.61;100.00;100565.78;5365915;33;33677;-83
2023/08/18 09:21:43;;;;;;;8.55;5.32;;;;;;;26.62;100.00;100565.50;5366322;33;34576;-83
2023/08/18 09:24:50;;;;;;;5.50;4.95;;;;;;;26.94;99.54;100566.22;5353805;33;34395;-83
2023/08/18 09:27:52;;;;;;;5.78;5.05;;;;;;;27.17;96.95;100564.78;5365864;33;34553;-83
2023/08/18 09:30:56;;;;;;;8.25;5.53;;;;;;;27.52;98.64;100564.56;5365704;33;34503;-83
2023/08/18 09:34:02;;;;;;;5.82;5.25;;;;;;;27.40;97.24;100563.25;5354780;33;33835;-83
2023/08/18 09:37:05;;;;;;;6.00;5.32;;;;;;;27.39;98.12;100565.22;5380436;33;35417;-83
2023/08/18 09:40:08;;;;;;;6.05;5.12;;;;;;;27.49;96.25;100565.13;5342346;33;34244;-83
2023/08/18 09:43:11;;;;;;;6.90;5.10;;;;;;;27.96;95.64;100566.50;5354834;33;33812;-87
2023/08/18 09:46:16;;;;;;;5.78;5.03;;;;;;;28.37;99.50;100568.06;5367051;33;34092;-87
2023/08/18 09:49:21;;;;;;;6.22;5.20;;;;;;;28.40;92.03;100567.47;5387748;33;34893;-87
2023/08/18 09:52:28;;;;;;;9.48;5.50;;;;;;;28.51;90.42;100559.91;5392044;33;33915;-86
2023/08/18 09:55:33;;;;;;;6.25;5.00;;;;;;;28.81;89.33;100564.28;5379914;33;34497;-84
2023/08/18 09:58:43;;;;;;;5.90;4.60;;;;;;;28.79;88.00;100558.22;5379044;33;34584;-84
2023/08/18 10:01:52;;;;;;;5.25;4.35;;;;;;;28.93;86.95;100557.22;5378215;33;33724;-83
2023/08/18 10:04:55;;;;;;;9.00;5.37;;;;;;;28.88;83.72;100556.44;5379062;33;34385;-84
2023/08/18 10:07:59;;;;;;;5.15;4.68;;;;;;;28.92;83.94;100552.78;5365921;33;33936;-84
2023/08/18 10:11:02;;;;;;;5.50;5.00;;;;;;;28.89;84.73;100563.63;5365922;33;34078;-83
2023/08/18 10:14:06;;;;;;;9.30;5.78;;;;;;;29.22;86.40;100553.56;5366039;33;34237;-84
2023/08/18 10:17:10;;;;;;;6.45;5.00;;;;;;;29.26;84.11;100557.38;5366150;33;34670;-84
2023/08/18 10:20:13;;;;;;;6.72;5.28;;;;;;;29.72;81.94;100551.19;5366042;33;34735;-84
2023/08/18 10:23:18;;;;;;;5.80;4.97;;;;;;;29.94;82.95;100547.75;5379485;33;34355;-84
2023/08/18 10:26:24;;;;;;;9.55;5.45;;;;;;;29.92;82.21;100543.62;5353254;33;34175;-84
2023/08/18 10:29:27;;;;;;;6.90;5.47;;;;;;;30.01;82.09;100547.34;5365222;33;33525;-84
2023/08/18 10:32:38;;;;;;;6.28;4.50;;;;;;;30.14;83.70;100541.03;5354401;33;33860;-84
2023/08/18 10:35:43;;;;;;;5.62;4.97;;;;;;;30.37;76.59;100552.31;5364836;33;34238;-84
2023/08/18 10:38:45;;;;;;;5.70;5.07;;;;;;;30.29;79.46;100559.37;5353834;33;33830;-84
2023/08/18 10:42:12;;;;;;;7.60;5.28;;;;;;;30.06;79.99;100563.94;5364422;33;34537;-84
2023/08/18 10:45:28;;;;;;;5.50;5.00;;;;;;;30.77;77.66;100553.44;5365097;33;33963;-83
2023/08/18 10:48:35;;;;;;;6.78;5.35;;;;;;;30.69;76.62;100556.97;5380191;33;33843;-83
2023/08/18 10:51:38;;;;;;;5.65;5.07;;;;;;;30.63;77.20;100544.31;5366669;33;33982;-83
2023/08/18 10:54:41;;;;;;;5.70;5.10;;;;;;;30.46;78.59;100539.34;5379464;33;33859;-83
2023/08/18 10:57:46;;;;;;;6.72;5.15;;;;;;;30.80;76.89;100546.47;5355258;33;34165;-83
2023/08/18 11:00:50;;;;;;;5.35;4.50;;;;;;;31.25;75.81;100544.69;5353156;33;34304;-84
2023/08/18 11:03:52;;;;;;;4.62;4.22;;;;;;;31.03;74.17;100536.28;5377661;33;34787;-84
2023/08/18 11:06:56;;;;;;;6.35;4.37;;;;;;;31.28;75.32;100535.72;5364340;33;33793;-87
2023/08/18 11:09:59;;;;;;;6.15;4.80;;;;;;;31.82;72.26;100533.06;5374695;33;34422;-88
2023/08/18 11:13:03;;;;;;;5.15;4.65;;;;;;;32.39;71.92;100538.03;5373684;33;34071;-88
2023/08/18 11:16:06;;;;;;;6.90;4.75;;;;;;;32.98;70.21;100535.78;5377389;33;34008;-84
2023/08/18 11:19:09;;;;;;;5.87;4.28;;;;;;;33.08;66.68;100541.09;5352550;33;34152;-84
2023/08/18 11:22:14;;;;;;;5.72;3.87;;;;;;;33.00;62.05;100541.09;5352175;33;34676;-84
2023/08/18 11:25:18;;;;;;;5.50;4.68;;;;;;;33.53;62.71;100528.84;5377138;33;34628;-84
2023/08/18 11:28:21;;;;;;;6.93;4.68;;;;;;;34.21;61.42;100529.91;5377458;33;34620;-84
2023/08/18 11:31:26;;;;;;;5.18;4.20;;;;;;;33.98;60.09;100534.88;5377312;33;33899;-84
2023/08/18 11:34:29;;;;;;;7.43;3.90;;;;;;;34.12;60.29;100533.91;5363991;33;33517;-84
2023/08/18 11:37:37;;;;;;;5.45;4.00;;;;;;;34.34;58.96;100527.22;5363541;33;34544;-84
2023/08/18 11:40:42;;;;;;;4.68;4.07;;;;;;;35.08;58.77;100523.12;5377014;33;34588;-84
2023/08/18 11:43:45;;;;;;;4.72;3.80;;;;;;;35.85;55.01;100518.87;5364037;33;33916;-84
2023/08/18 11:46:48;;;;;;;5.18;3.97;;;;;;;37.53;51.51;100518.00;5377051;33;33675;-84
2023/08/18 11:49:51;;;;;;;4.80;4.03;;;;;;;38.34;45.76;100520.59;5363824;33;33867;-84
2023/08/18 11:52:54;;;;;;;4.20;3.80;;;;;;;38.09;44.71;100511.53;5375824;33;33890;-84
2023/08/18 11:55:57;;;;;;;3.60;3.30;;;;;;;38.58;44.08;100516.00;5360249;33;33742;-84
2023/08/18 11:59:02;;;;;;;3.60;3.30;;;;;;;39.02;42.02;100516.66;5376860;33;33687;-84
2023/08/18 12:02:05;;;;;;;4.57;3.53;;;;;;;38.67;42.85;100511.00;5366270;33;34794;-84
2023/08/18 12:05:18;;;;;;;3.72;3.40;;;;;;;40.25;39.47;100504.72;5379601;33;34600;-85
2023/08/18 12:08:21;;;;;;;4.85;3.20;;;;;;;39.71;37.99;100507.69;5379701;33;34855;-84
2023/08/18 12:11:23;;;;;;;3.30;3.00;;;;;;;39.01;39.49;100498.97;5379409;33;34098;-85
2023/08/18 12:14:26;;;;;;;4.20;2.90;;;;;;;39.52;37.68;100497.22;5354184;33;34774;-84
2023/08/18 12:17:30;;;;;;;3.83;3.10;;;;;;;39.80;34.88;100486.56;5354675;33;33796;-84
2023/08/18 12:20:33;;;;;;;4.12;3.22;;;;;;;39.76;35.49;100491.31;5366248;33;34275;-85
2023/08/18 12:23:37;;;;;;;3.50;3.20;;;;;;;40.57;36.64;100488.31;5379699;33;34479;-84
2023/08/18 12:26:40;;;;;;;2.97;2.78;;;;;;;40.97;34.29;100478.44;5366266;33;34013;-84
2023/08/18 12:29:44;;;;;;;2.92;2.70;;;;;;;41.38;32.71;100481.41;5366798;33;33698;-82
2023/08/18 12:32:49;;;;;;;2.95;2.75;;;;;;;42.95;31.11;100475.62;5366267;33;34625;-81
2023/08/18 12:35:52;;;;;;;7.43;2.85;;;;;;;41.34;31.28;100483.38;5379725;33;33942;-82
2023/08/18 12:38:54;;;;;;;2.67;2.47;;;;;;;40.29;32.47;100479.41;5354662;33;34611;-82
2023/08/18 12:41:57;;;;;;;3.08;2.78;;;;;;;41.35;30.87;100481.37;5367541;33;33841;-83
2023/08/18 12:45:00;;;;;;;4.18;2.80;;;;;;;42.54;28.39;100481.41;5374791;33;33941;-83
2023/08/18 12:48:04;;;;;;;3.00;2.65;;;;;;;43.61;27.47;100479.16;5379950;33;35162;-83
2023/08/18 12:51:06;;;;;;;2.90;2.67;;;;;;;44.69;25.40;100480.03;5358402;33;35030;-83
2023/08/18 12:54:09;;;;;;;3.22;2.95;;;;;;;44.05;25.07;100488.56;5373972;33;34086;-82
2023/08/18 12:57:12;;;;;;;2.67;2.45;;;;;;;40.63;29.59;100485.19;5371029;33;34027;-83
2023/08/18 13:00:16;;;;;;;3.42;2.87;;;;;;;37.97;34.07;100486.28;5379265;33;33731;-82
2023/08/18 13:03:19;;;;;;;3.90;2.92;;;;;;;35.62;38.53;100489.59;5365891;33;34708;-82
2023/08/18 13:06:22;;;;;;;3.35;2.87;;;;;;;34.47;41.66;100487.87;5365568;33;34226;-83
2023/08/18 13:09:26;;;;;;;3.62;2.85;;;;;;;33.74;44.29;100484.31;5354189;33;34005;-82
2023/08/18 13:12:30;;;;;;;3.87;3.47;;;;;;;33.27;47.13;100484.16;5354161;33;34097;-86
2023/08/18 13:15:32;;;;;;;4.57;3.67;;;;;;;33.99;45.76;100475.06;5353850;33;33869;-86
2023/08/18 13:18:35;;;;;;;4.00;3.60;;;;;;;36.75;39.68;100469.47;5366178;33;33753;-87
2023/08/18 13:21:44;;;;;;;4.60;3.37;;;;;;;39.34;36.49;100465.88;5355302;33;34115;-83
2023/08/18 13:24:47;;;;;;;5.32;3.47;;;;;;;39.26;33.38;100467.72;5366226;33;34350;-83
2023/08/18 13:27:50;;;;;;;5.40;3.50;;;;;;;38.56;34.98;100460.91;5365797;33;33523;-83
2023/08/18 13:30:54;;;;;;;5.07;3.30;;;;;;;38.53;34.91;100467.28;5353481;33;34040;-83
2023/08/18 13:33:57;;;;;;;4.65;3.42;;;;;;;37.26;36.92;100468.22;5378695;33;34224;-82
2023/08/18 13:37:00;;;;;;;5.05;3.10;;;;;;;34.78;41.72;100460.75;5354219;33;34375;-82
2023/08/18 13:40:04;;;;;;;4.78;3.35;;;;;;;33.61;44.82;100467.44;5365505;33;34778;-82
2023/08/18 13:43:09;;;;;;;3.80;2.90;;;;;;;33.41;43.81;100462.50;5353976;33;34007;-82
2023/08/18 13:46:11;;;;;;;5.65;3.45;;;;;;;34.02;42.79;100470.75;5353804;33;33878;-82
2023/08/18 13:49:15;;;;;;;3.75;3.12;;;;;;;33.05;43.55;100465.59;5354034;33;33940;-82
2023/08/18 13:52:17;;;;;;;3.85;3.47;;;;;;;33.32;43.53;100470.06;5366052;33;33783;-82
2023/08/18 13:55:20;;;;;;;6.87;3.92;;;;;;;35.01;41.49;100464.03;5372461;33;33950;-83
2023/08/18 13:58:23;;;;;;;3.75;3.45;;;;;;;35.03;41.88;100467.34;5370577;33;33963;-83
2023/08/18 14:01:26;;;;;;;3.80;3.50;;;;;;;36.49;39.41;100464.22;5368321;33;35012;-82
2023/08/18 14:04:29;;;;;;;4.97;3.50;;;;;;;37.63;36.97;100460.47;5374002;33;159171;-82
2023/08/18 14:07:32;;;;;;;3.42;3.12;;;;;;;38.15;34.51;100469.91;5365275;33;34004;-82
2023/08/18 14:10:36;;;;;;;3.83;3.40;;;;;;;36.41;36.26;100473.56;5353609;33;33841;-82
2023/08/18 14:13:41;;;;;;;5.57;3.53;;;;;;;34.29;39.73;100477.94;5365697;33;33786;-82
2023/08/18 14:16:44;;;;;;;5.68;3.58;;;;;;;32.98;43.49;100482.78;5365056;33;34226;-82
2023/08/18 14:19:47;;;;;;;5.25;3.78;;;;;;;32.28;47.05;100481.75;5353251;33;33866;-82
2023/08/18 14:22:51;;;;;;;5.80;3.87;;;;;;;31.55;49.01;100486.69;5346487;33;34863;-82
2023/08/18 14:25:55;;;;;;;5.30;3.50;;;;;;;31.14;51.26;100490.41;5375336;33;33389;-82
2023/08/18 14:28:58;;;;;;;5.28;4.00;;;;;;;30.52;53.85;100493.66;5378607;33;33849;-83
2023/08/18 14:32:02;;;;;;;4.85;4.00;;;;;;;30.22;54.84;100497.87;5365151;33;33743;-83
2023/08/18 14:35:08;;;;;;;4.95;3.67;;;;;;;29.95;54.86;100488.34;5364885;33;33402;-83
2023/08/18 14:38:11;;;;;;;5.00;3.70;;;;;;;29.44;56.80;100500.25;5365210;33;34115;-83
2023/08/18 14:41:14;;;;;;;5.78;3.78;;;;;;;29.08;59.95;100497.19;5353210;33;33521;-83
2023/08/18 14:44:16;;;;;;;4.97;4.00;;;;;;;28.90;57.54;100496.00;5378147;33;34476;-83
2023/08/18 14:47:19;;;;;;;5.80;4.00;;;;;;;28.55;60.33;100511.13;5355971;33;33460;-83
2023/08/18 14:50:22;;;;;;;4.57;4.03;;;;;;;28.35;61.36;100504.66;5365989;33;34606;-83
2023/08/18 14:53:25;;;;;;;3.97;3.60;;;;;;;28.45;59.14;100504.56;5355123;33;33456;-82
2023/08/18 14:56:28;;;;;;;4.22;3.65;;;;;;;28.46;60.87;100500.72;5367400;33;33623;-83
2023/08/18 14:59:32;;;;;;;6.07;4.20;;;;;;;28.16;62.36;100501.00;5365710;33;33839;-83
2023/08/18 15:02:36;;;;;;;4.32;3.90;;;;;;;28.03;64.16;100492.25;5364391;33;34888;-83
2023/08/18 15:05:39;;;;;;;4.40;3.92;;;;;;;28.03;61.21;100491.44;5364818;33;33843;-83
2023/08/18 15:08:42;;;;;;;4.22;3.75;;;;;;;28.04;60.95;100482.00;5364346;33;33789;-83
2023/08/18 15:11:46;;;;;;;4.18;3.78;;;;;;;28.11;60.97;100479.75;5350981;33;34512;-83
2023/08/18 15:14:49;;;;;;;4.37;3.87;;;;;;;28.01;60.29;100472.34;5352242;33;33835;-83
2023/08/18 15:17:52;;;;;;;6.00;3.95;;;;;;;28.11;58.07;100463.13;5358045;33;34503;-83
2023/08/18 15:20:54;;;;;;;5.10;3.72;;;;;;;28.17;57.35;100459.19;5357794;33;33381;-83
2023/08/18 15:23:57;;;;;;;4.45;3.70;;;;;;;28.32;58.82;100460.13;5358041;33;33779;-86
2023/08/18 15:27:00;;;;;;;4.62;3.50;;;;;;;28.32;59.12;100462.91;5346129;33;34239;-87
2023/08/18 15:30:04;;;;;;;5.78;3.80;;;;;;;28.29;59.51;100453.25;5361266;33;33998;-87
2023/08/18 15:33:07;;;;;;;4.80;3.53;;;;;;;28.43;57.20;100454.22;5349066;33;34887;-87
2023/08/18 15:36:10;;;;;;;3.90;3.50;;;;;;;28.26;57.83;100457.41;5361220;33;33949;-84
2023/08/18 15:39:14;;;;;;;3.78;3.30;;;;;;;28.19;57.64;100451.38;5360820;33;34196;-83
2023/08/18 15:42:17;;;;;;;5.03;4.22;;;;;;;28.10;60.43;100455.09;5360889;33;33990;-84
2023/08/18 15:45:20;;;;;;;4.47;3.92;;;;;;;27.89;59.82;100448.97;5350425;33;34636;-83
2023/08/18 15:48:23;;;;;;;6.60;4.78;;;;;;;27.65;62.44;100449.69;5357820;33;34067;-83
2023/08/18 15:51:26;;;;;;;4.60;4.20;;;;;;;27.50;64.47;100436.00;5375810;33;36169;-83
2023/08/18 15:54:29;;;;;;;4.72;4.22;;;;;;;27.30;65.12;100435.03;5361683;33;33783;-83
2023/08/18 15:57:32;;;;;;;4.97;3.95;;;;;;;27.26;65.72;100427.59;5360301;33;33743;-83
2023/08/18 16:00:35;;;;;;;4.53;3.92;;;;;;;27.14;63.82;100422.41;5359927;33;33761;-83
2023/08/18 16:03:38;;;;;;;6.85;4.00;;;;;;;27.08;65.08;100415.25;5359672;33;34452;-83
2023/08/18 16:06:41;;;;;;;6.03;3.80;;;;;;;27.02;64.71;100411.72;5359949;33;34925;-83
2023/08/18 16:09:46;;;;;;;5.30;3.75;;;;;;;26.96;66.09;100401.00;5360105;33;33512;-83
2023/08/18 16:12:50;;;;;;;5.10;4.18;;;;;;;26.89;65.12;100404.91;5359894;33;33623;-83
2023/08/18 16:15:53;;;;;;;6.15;3.90;;;;;;;26.83;66.21;100389.47;5360413;33;34927;-83
2023/08/18 16:19:03;;;;;;;8.20;4.28;;;;;;;26.81;67.52;100397.22;5362549;33;33472;-83
